createdAt,value
2017-05-28T00:00:59.953Z,101405
2017-05-28T00:03:29.490Z,101402
2017-05-28T00:05:59.106Z,101398
2017-05-28T00:08:28.516Z,101402
2017-05-28T00:10:57.787Z,101402
2017-05-28T00:13:27.327Z,101403
2017-05-28T00:15:56.527Z,101403
2017-05-28T00:18:25.768Z,101396
2017-05-28T00:20:55.461Z,101389
2017-05-28T00:23:24.810Z,101395
2017-05-28T00:25:54.237Z,101397
2017-05-28T00:28:23.707Z,101400
2017-05-28T00:30:53.072Z,101395
2017-05-28T00:33:22.532Z,101394
2017-05-28T00:35:51.730Z,101387
2017-05-28T00:38:21.204Z,101387
2017-05-28T00:40:50.461Z,101393
2017-05-28T00:43:20.413Z,101392
2017-05-28T00:45:49.632Z,101392
2017-05-28T00:48:19.210Z,101390
2017-05-28T00:50:48.416Z,101389
2017-05-28T00:53:17.948Z,101385
2017-05-28T00:55:47.151Z,101390
2017-05-28T00:58:16.391Z,101382
2017-05-28T01:00:45.619Z,101385
2017-05-28T01:03:14.853Z,101372
2017-05-28T01:05:44.525Z,101367
2017-05-28T01:08:13.724Z,101379
2017-05-28T01:10:42.932Z,101374
2017-05-28T01:13:12.444Z,101369
2017-05-28T01:15:41.676Z,101372
2017-05-28T01:18:10.880Z,101357
2017-05-28T01:20:40.156Z,101370
2017-05-28T01:23:09.392Z,101372
2017-05-28T01:25:38.615Z,101357
2017-05-28T01:28:08.220Z,101341
2017-05-28T01:30:38.097Z,101362
2017-05-28T01:33:07.606Z,101363
2017-05-28T01:35:37.106Z,101362
2017-05-28T01:38:06.912Z,101362
2017-05-28T01:40:36.334Z,101357
2017-05-28T01:43:06.118Z,101352
2017-05-28T01:45:35.575Z,101350
2017-05-28T01:48:04.851Z,101350
2017-05-28T01:50:34.208Z,101347
2017-05-28T01:53:03.477Z,101340
2017-05-28T01:55:32.973Z,101195
2017-05-28T01:58:02.294Z,101332
2017-05-28T02:00:31.741Z,101337
2017-05-28T02:03:01.344Z,101335
2017-05-28T02:05:30.545Z,101321
2017-05-28T02:07:59.792Z,101314
2017-05-28T02:10:29.205Z,101319
2017-05-28T02:12:58.524Z,101318
2017-05-28T02:15:28.041Z,101305
2017-05-28T02:17:57.248Z,101301
2017-05-28T02:20:26.581Z,101310
2017-05-28T02:22:56.221Z,101291
2017-05-28T02:25:25.456Z,101297
2017-05-28T02:27:55.094Z,101298
2017-05-28T02:30:25.245Z,101290
2017-05-28T02:32:55.365Z,101291
2017-05-28T02:35:24.713Z,101297
2017-05-28T02:37:54.799Z,101294
2017-05-28T02:40:24.042Z,101280
2017-05-28T02:42:53.608Z,101293
2017-05-28T02:45:22.805Z,101284
2017-05-28T02:47:52.430Z,101288
2017-05-28T02:50:21.695Z,101296
2017-05-28T02:52:50.929Z,101313
2017-05-28T02:55:20.156Z,101292
2017-05-28T02:57:49.971Z,101287
2017-05-28T03:00:19.673Z,101292
2017-05-28T03:02:49.087Z,101275
2017-05-28T03:05:18.301Z,101292
2017-05-28T03:07:47.542Z,101282
2017-05-28T03:10:16.947Z,101296
2017-05-28T03:12:46.251Z,101278
2017-05-28T03:15:15.487Z,101283
2017-05-28T03:17:44.717Z,101274
2017-05-28T03:20:14.423Z,101272
2017-05-28T03:22:43.900Z,101285
2017-05-28T03:25:13.371Z,101279
2017-05-28T03:27:42.641Z,101275
2017-05-28T03:30:12.021Z,101281
2017-05-28T03:32:41.385Z,101276
2017-05-28T03:35:10.583Z,101281
2017-05-28T03:37:39.791Z,101281
2017-05-28T03:40:09.005Z,101280
2017-05-28T03:42:38.206Z,101274
2017-05-28T03:45:08.168Z,101272
2017-05-28T03:47:37.492Z,101276
2017-05-28T03:50:06.677Z,101279
2017-05-28T03:52:35.879Z,101276
2017-05-28T03:55:05.540Z,101284
2017-05-28T03:57:34.904Z,101284
2017-05-28T04:00:04.291Z,101284
2017-05-28T04:02:33.509Z,101280
2017-05-28T04:05:03.044Z,101277
2017-05-28T04:07:32.413Z,101277
2017-05-28T04:10:01.680Z,101276
2017-05-28T04:12:30.896Z,101269
2017-05-28T04:15:00.259Z,101277
2017-05-28T04:17:29.700Z,101280
2017-05-28T04:19:59.451Z,101274
2017-05-28T04:22:29.215Z,101271
2017-05-28T04:24:58.817Z,101282
2017-05-28T04:27:28.380Z,101276
2017-05-28T04:29:58.252Z,101269
2017-05-28T04:32:27.440Z,101271
2017-05-28T04:34:56.620Z,101271
2017-05-28T04:37:26.158Z,101278
2017-05-28T04:39:55.361Z,101278
2017-05-28T04:42:24.569Z,101279
2017-05-28T04:44:54.069Z,101284
2017-05-28T04:47:23.772Z,101273
2017-05-28T04:49:53.131Z,101274
2017-05-28T04:52:22.316Z,101265
2017-05-28T04:54:51.911Z,101264
2017-05-28T04:57:21.653Z,101263
2017-05-28T04:59:50.860Z,101278
2017-05-28T05:02:20.048Z,101284
2017-05-28T05:04:49.285Z,101279
2017-05-28T05:07:18.492Z,101282
2017-05-28T05:09:47.784Z,101290
2017-05-28T05:12:17.434Z,101294
2017-05-28T05:14:46.636Z,101292
2017-05-28T05:17:15.815Z,101184
2017-05-28T05:19:45.152Z,101303
2017-05-28T05:22:14.336Z,101304
2017-05-28T05:24:43.863Z,101288
2017-05-28T05:27:13.064Z,101291
2017-05-28T05:29:42.301Z,101288
2017-05-28T05:32:11.673Z,101292
2017-05-28T05:34:41.336Z,101284
2017-05-28T05:37:10.557Z,101285
2017-05-28T05:39:39.778Z,101297
2017-05-28T05:42:09.039Z,101291
2017-05-28T05:44:38.300Z,101300
2017-05-28T05:47:07.540Z,101297
2017-05-28T05:49:36.796Z,101288
2017-05-28T05:52:06.080Z,101289
2017-05-28T05:54:35.529Z,101287
2017-05-28T05:57:04.828Z,101290
2017-05-28T05:59:34.185Z,101301
2017-05-28T06:02:03.624Z,101306
2017-05-28T06:04:32.928Z,101303
2017-05-28T06:07:02.450Z,101307
2017-05-28T06:09:31.772Z,101306
2017-05-28T06:12:00.959Z,101297
2017-05-28T06:14:32.226Z,101295
2017-05-28T06:17:01.597Z,101303
2017-05-28T06:19:30.905Z,101310
2017-05-28T06:22:00.093Z,101310
2017-05-28T06:24:29.382Z,101307
2017-05-28T06:26:58.927Z,101303
2017-05-28T06:29:28.171Z,101321
2017-05-28T06:31:57.352Z,101317
2017-05-28T06:34:26.544Z,101329
2017-05-28T06:36:55.738Z,101344
2017-05-28T06:39:25.267Z,101349
2017-05-28T06:41:54.463Z,101365
2017-05-28T06:44:23.841Z,101385
2017-05-28T06:59:28.288Z,101392
2017-05-28T07:01:57.841Z,101383
2017-05-28T07:04:27.029Z,101378
2017-05-28T07:06:56.245Z,101377
2017-05-28T07:09:25.458Z,101367
2017-05-28T07:11:54.753Z,101374
2017-05-28T07:14:23.950Z,101384
2017-05-28T07:16:53.143Z,101389
2017-05-28T07:19:22.493Z,101411
2017-05-28T07:21:51.701Z,101407
2017-05-28T07:24:20.902Z,101399
2017-05-28T07:26:50.124Z,101402
2017-05-28T07:29:19.340Z,101392
2017-05-28T07:31:48.600Z,101398
2017-05-28T07:34:18.022Z,101398
2017-05-28T07:36:47.740Z,101407
2017-05-28T07:39:17.279Z,101396
2017-05-28T07:41:46.577Z,101391
2017-05-28T07:44:15.774Z,101397
2017-05-28T07:46:45.139Z,101404
2017-05-28T07:49:14.687Z,101392
2017-05-28T07:51:44.746Z,101394
2017-05-28T07:54:14.273Z,101398
2017-05-28T07:56:43.464Z,101399
2017-05-28T07:59:12.986Z,101389
2017-05-28T08:01:42.337Z,101408
2017-05-28T08:04:12.011Z,101412
2017-05-28T08:06:41.215Z,101405
2017-05-28T08:09:10.412Z,101398
2017-05-28T08:11:39.604Z,101400
2017-05-28T08:14:08.787Z,101379
2017-05-28T08:16:38.357Z,101374
2017-05-28T08:19:07.596Z,101383
2017-05-28T08:21:36.909Z,101364
2017-05-28T08:24:06.141Z,101358
2017-05-28T08:26:35.340Z,101346
2017-05-28T08:29:04.585Z,101340
2017-05-28T08:31:34.108Z,101341
2017-05-28T08:34:03.400Z,101331
2017-05-28T08:36:32.800Z,101318
2017-05-28T08:39:02.028Z,101312
2017-05-28T08:41:31.245Z,101297
2017-05-28T08:44:00.832Z,101319
2017-05-28T08:46:30.096Z,101313
2017-05-28T08:48:59.281Z,101322
2017-05-28T08:51:28.548Z,101318
2017-05-28T08:53:58.263Z,101327
2017-05-28T08:56:27.491Z,101318
2017-05-28T08:58:56.881Z,101322
2017-05-28T09:01:26.097Z,101319
2017-05-28T09:03:55.268Z,101309
2017-05-28T09:06:24.970Z,101310
2017-05-28T09:08:54.692Z,101297
2017-05-28T09:11:23.866Z,101286
2017-05-28T09:13:53.085Z,101301
2017-05-28T09:16:22.291Z,101302
2017-05-28T09:18:52.228Z,101308
2017-05-28T09:21:21.612Z,101304
2017-05-28T09:23:50.944Z,101302
2017-05-28T09:26:20.785Z,101316
2017-05-28T09:28:50.102Z,101316
2017-05-28T09:31:19.324Z,101314
2017-05-28T09:33:51.373Z,101316
2017-05-28T09:36:22.553Z,101318
2017-05-28T09:38:54.813Z,101314
2017-05-28T09:41:25.857Z,101321
2017-05-28T09:43:59.421Z,101324
2017-05-28T09:46:30.182Z,101321
2017-05-28T09:49:05.789Z,101326
2017-05-28T09:51:51.570Z,101323
2017-05-28T09:54:22.496Z,101330
2017-05-28T09:56:53.811Z,101334
2017-05-28T09:59:24.564Z,101323
2017-05-28T10:01:53.816Z,101337
2017-05-28T10:04:23.141Z,101338
2017-05-28T10:06:52.711Z,101333
2017-05-28T10:09:21.911Z,101330
2017-05-28T10:11:51.102Z,101330
2017-05-28T10:14:20.294Z,101326
2017-05-28T10:16:49.705Z,101336
2017-05-28T10:19:18.954Z,101337
2017-05-28T10:21:48.927Z,101341
2017-05-28T10:24:18.161Z,101332
2017-05-28T10:26:47.716Z,101344
2017-05-28T10:29:17.138Z,101331
2017-05-28T10:31:46.340Z,101334
2017-05-28T10:34:15.565Z,101344
2017-05-28T10:36:44.764Z,101349
2017-05-28T10:39:13.981Z,101344
2017-05-28T10:41:43.201Z,101336
2017-05-28T10:44:12.611Z,101337
2017-05-28T10:46:41.998Z,101342
2017-05-28T10:49:11.333Z,101326
2017-05-28T10:51:40.685Z,101340
2017-05-28T10:54:09.909Z,101332
2017-05-28T10:56:39.317Z,101335
2017-05-28T10:59:08.818Z,101325
2017-05-28T11:01:38.043Z,101316
2017-05-28T11:04:07.277Z,101328
2017-05-28T11:06:37.134Z,101323
2017-05-28T11:09:06.848Z,101336
2017-05-28T11:11:36.544Z,101325
2017-05-28T11:14:05.732Z,101328
2017-05-28T11:16:34.939Z,101318
2017-05-28T11:19:04.147Z,101316
2017-05-28T11:21:56.574Z,101317
2017-05-28T11:24:26.238Z,101302
2017-05-28T11:26:55.844Z,101302
2017-05-28T11:29:25.613Z,101304
2017-05-28T11:31:54.832Z,101303
2017-05-28T11:34:24.031Z,101309
2017-05-28T11:36:53.716Z,101295
2017-05-28T11:39:23.284Z,101301
2017-05-28T11:41:52.512Z,101299
2017-05-28T11:44:21.836Z,101287
2017-05-28T11:46:51.029Z,101294
2017-05-28T11:49:20.252Z,101292
2017-05-28T11:51:49.888Z,101291
2017-05-28T11:54:19.136Z,101295
2017-05-28T11:56:48.702Z,101296
2017-05-28T11:59:18.265Z,101297
2017-05-28T12:01:47.729Z,101294
2017-05-28T12:04:16.974Z,101300
2017-05-28T12:06:46.372Z,101304
2017-05-28T12:09:16.100Z,101304
2017-05-28T12:11:45.380Z,101297
2017-05-28T12:14:14.739Z,101314
2017-05-28T12:16:44.007Z,101309
2017-05-28T12:19:13.369Z,101300
2017-05-28T12:21:42.660Z,101313
2017-05-28T12:24:11.891Z,101305
2017-05-28T12:26:41.231Z,101309
2017-05-28T12:29:10.763Z,101310
2017-05-28T12:31:40.141Z,101304
2017-05-28T12:34:09.557Z,101299
2017-05-28T12:36:39.061Z,101303
2017-05-28T12:39:08.406Z,101296
2017-05-28T12:41:37.782Z,101299
2017-05-28T12:44:07.056Z,101298
2017-05-28T12:46:36.308Z,101299
2017-05-28T12:49:05.512Z,101298
2017-05-28T12:51:34.737Z,101194
2017-05-28T12:54:03.999Z,101291
2017-05-28T12:56:33.987Z,101287
2017-05-28T12:59:03.208Z,101289
2017-05-28T13:01:32.405Z,101291
2017-05-28T13:04:01.940Z,101273
2017-05-28T13:06:31.325Z,101289
2017-05-28T13:09:02.212Z,101292
2017-05-28T13:11:31.457Z,101299
2017-05-28T13:14:01.589Z,101287
2017-05-28T13:16:30.821Z,101282
2017-05-28T13:19:00.043Z,101284
2017-05-28T13:21:29.394Z,101285
2017-05-28T13:23:58.723Z,101287
2017-05-28T13:26:28.007Z,101290
2017-05-28T13:28:57.283Z,101294
2017-05-28T13:31:26.633Z,101280
2017-05-28T13:33:55.833Z,101274
2017-05-28T13:36:27.472Z,101267
2017-05-28T13:38:57.071Z,101280
2017-05-28T13:41:26.450Z,101282
2017-05-28T13:43:55.651Z,101290
2017-05-28T13:46:25.635Z,101278
2017-05-28T13:48:55.385Z,101284
2017-05-28T13:51:25.241Z,101278
2017-05-28T13:53:54.836Z,101271
2017-05-28T13:56:24.101Z,101280
2017-05-28T13:58:53.671Z,101282
2017-05-28T14:01:23.463Z,101273
2017-05-28T14:03:52.685Z,101266
2017-05-28T14:06:21.873Z,101275
2017-05-28T14:08:51.204Z,101268
2017-05-28T14:11:20.516Z,101268
2017-05-28T14:13:49.829Z,101265
2017-05-28T14:16:19.305Z,101256
2017-05-28T14:18:48.606Z,101254
2017-05-28T14:21:18.497Z,101255
2017-05-28T14:23:47.778Z,101255
2017-05-28T14:26:17.419Z,101247
2017-05-28T14:28:46.616Z,101245
2017-05-28T14:31:15.851Z,101231
2017-05-28T14:33:45.047Z,101240
2017-05-28T14:36:15.734Z,101225
2017-05-28T14:38:45.267Z,101238
2017-05-28T14:41:14.566Z,101227
2017-05-28T14:43:44.287Z,101247
2017-05-28T14:46:13.596Z,101240
2017-05-28T14:48:42.873Z,101225
2017-05-28T14:51:12.481Z,101215
2017-05-28T14:53:41.939Z,101230
2017-05-28T14:56:11.398Z,101220
2017-05-28T14:58:40.944Z,101220
2017-05-28T15:01:10.268Z,101227
2017-05-28T15:03:40.716Z,101228
2017-05-28T15:06:10.085Z,101220
2017-05-28T15:08:39.340Z,101227
2017-05-28T15:11:08.561Z,101224
2017-05-28T15:13:38.446Z,101233
2017-05-28T15:16:07.656Z,101231
2017-05-28T15:18:36.952Z,101228
2017-05-28T15:21:06.172Z,101234
2017-05-28T15:23:35.380Z,101235
2017-05-28T15:26:04.654Z,101240
2017-05-28T15:28:34.436Z,101234
2017-05-28T15:31:03.629Z,101233
2017-05-28T15:33:32.827Z,101242
2017-05-28T15:36:02.296Z,101235
2017-05-28T15:38:31.513Z,101237
2017-05-28T15:41:00.747Z,101239
2017-05-28T15:43:29.946Z,101237
2017-05-28T15:45:59.248Z,101232
2017-05-28T15:48:28.796Z,101239
2017-05-28T15:51:00.202Z,101239
2017-05-28T15:53:30.002Z,101225
2017-05-28T15:55:59.235Z,101234
2017-05-28T15:58:28.521Z,101238
2017-05-28T16:00:58.549Z,101237
2017-05-28T16:03:27.782Z,101239
2017-05-28T16:05:57.005Z,101236
2017-05-28T16:08:26.257Z,101234
2017-05-28T16:10:55.482Z,101236
2017-05-28T16:13:24.872Z,101237
2017-05-28T16:15:54.582Z,101233
2017-05-28T16:18:24.913Z,101226
2017-05-28T16:20:55.402Z,101233
2017-05-28T16:23:24.590Z,101227
2017-05-28T16:25:53.997Z,101227
2017-05-28T16:28:23.301Z,101230
2017-05-28T16:30:53.825Z,101240
2017-05-28T16:33:26.203Z,101227
2017-05-28T16:35:55.413Z,101230
2017-05-28T16:38:24.848Z,101227
2017-05-28T16:40:54.059Z,101231
2017-05-28T16:43:23.526Z,101236
2017-05-28T16:45:53.813Z,101240
2017-05-28T16:48:23.548Z,101239
2017-05-28T16:50:53.056Z,101247
2017-05-28T16:53:22.278Z,101248
2017-05-28T16:55:51.621Z,101243
2017-05-28T16:58:20.877Z,101248
2017-05-28T17:00:52.352Z,101257
2017-05-28T17:03:21.553Z,101254
2017-05-28T17:05:50.879Z,101248
2017-05-28T17:08:20.195Z,101248
2017-05-28T17:10:49.607Z,101242
2017-05-28T17:13:19.112Z,101243
2017-05-28T17:15:48.376Z,101249
2017-05-28T17:18:17.573Z,101250
2017-05-28T17:20:46.801Z,101253
2017-05-28T17:23:16.150Z,101250
2017-05-28T17:25:45.348Z,101257
2017-05-28T17:28:14.740Z,101253
2017-05-28T17:30:44.098Z,101249
2017-05-28T17:33:13.316Z,101249
2017-05-28T17:35:43.031Z,101248
2017-05-28T17:38:12.238Z,101244
2017-05-28T17:40:41.540Z,101247
2017-05-28T17:43:15.558Z,101249
2017-05-28T17:45:44.799Z,101255
2017-05-28T17:48:14.026Z,101248
2017-05-28T17:50:43.249Z,101254
2017-05-28T17:53:12.574Z,101251
2017-05-28T17:55:41.883Z,101239
2017-05-28T17:58:11.882Z,101248
2017-05-28T18:00:41.380Z,101248
2017-05-28T18:03:11.084Z,101257
2017-05-28T18:05:40.316Z,101253
2017-05-28T18:08:09.854Z,101244
2017-05-28T18:10:39.148Z,101251
2017-05-28T18:13:08.365Z,101257
2017-05-28T18:15:42.389Z,101239
2017-05-28T18:18:12.332Z,101248
2017-05-28T18:20:43.173Z,101249
2017-05-28T18:23:12.510Z,101250
2017-05-28T18:25:44.774Z,101251
2017-05-28T18:28:14.453Z,101249
2017-05-28T18:30:43.813Z,101240
2017-05-28T18:33:13.044Z,101253
2017-05-28T18:35:43.749Z,101254
2017-05-28T18:38:12.967Z,101254
2017-05-28T18:40:42.270Z,101251
2017-05-28T18:43:11.668Z,101266
2017-05-28T18:45:41.037Z,101258
2017-05-28T18:48:10.481Z,101257
2017-05-28T18:50:39.783Z,101261
2017-05-28T18:53:09.100Z,101267
2017-05-28T18:55:39.000Z,101267
2017-05-28T18:58:09.130Z,101266
2017-05-28T19:00:38.421Z,101270
2017-05-28T19:03:11.642Z,101268
2017-05-28T19:05:40.913Z,101278
2017-05-28T19:08:10.589Z,101277
2017-05-28T19:10:39.939Z,101269
2017-05-28T19:13:09.824Z,101269
2017-05-28T19:15:41.217Z,101272
2017-05-28T19:18:10.447Z,101275
2017-05-28T19:20:39.701Z,101274
2017-05-28T19:23:08.927Z,101270
2017-05-28T19:25:38.140Z,101278
2017-05-28T19:28:07.696Z,101247
2017-05-28T19:30:36.908Z,101283
2017-05-28T19:33:06.318Z,101273
2017-05-28T19:35:35.679Z,101278
2017-05-28T19:38:05.029Z,101278
2017-05-28T19:40:34.448Z,101275
2017-05-28T19:43:04.176Z,101268
2017-05-28T19:45:33.637Z,101275
2017-05-28T19:48:02.910Z,101278
2017-05-28T19:50:32.129Z,101272
2017-05-28T19:53:01.360Z,101266
2017-05-28T19:55:30.567Z,101278
2017-05-28T19:57:59.937Z,101270
2017-05-28T20:00:29.167Z,101281
2017-05-28T20:02:58.403Z,101278
2017-05-28T20:05:27.930Z,101277
2017-05-28T20:07:57.361Z,101278
2017-05-28T20:10:26.722Z,101269
2017-05-28T20:12:55.955Z,101278
2017-05-28T20:15:25.492Z,101267
2017-05-28T20:17:54.835Z,101281
2017-05-28T20:20:24.298Z,101280
2017-05-28T20:22:53.515Z,101287
2017-05-28T20:25:23.248Z,101270
2017-05-28T20:27:52.517Z,101268
2017-05-28T20:30:21.903Z,101267
2017-05-28T20:32:51.216Z,101249
2017-05-28T20:35:20.925Z,101268
2017-05-28T20:37:50.580Z,101267
2017-05-28T20:40:19.934Z,101256
2017-05-28T20:42:49.138Z,101261
2017-05-28T20:45:18.612Z,101258
2017-05-28T20:47:47.804Z,101265
2017-05-28T20:50:17.538Z,101258
2017-05-28T20:52:48.491Z,101254
2017-05-28T20:55:17.987Z,101250
2017-05-28T20:57:47.319Z,101242
2017-05-28T21:00:16.771Z,101245
2017-05-28T21:02:46.273Z,101255
2017-05-28T21:05:15.504Z,101245
2017-05-28T21:07:45.318Z,101254
2017-05-28T21:10:14.782Z,101247
2017-05-28T21:12:43.985Z,101238
2017-05-28T21:15:13.379Z,101241
2017-05-28T21:17:42.680Z,101246
2017-05-28T21:20:12.213Z,101239
2017-05-28T21:22:41.688Z,101246
2017-05-28T21:25:10.886Z,101243
2017-05-28T21:27:40.078Z,101239
2017-05-28T21:30:09.324Z,101240
2017-05-28T21:32:38.564Z,101238
2017-05-28T21:35:08.251Z,101242
2017-05-28T21:37:37.762Z,101237
2017-05-28T21:40:06.982Z,101228
2017-05-28T21:42:36.195Z,101243
2017-05-28T21:45:05.477Z,101240
2017-05-28T21:47:35.623Z,101245
2017-05-28T21:50:05.124Z,101252
2017-05-28T21:52:34.560Z,101243
2017-05-28T21:55:03.888Z,101235
2017-05-28T21:57:33.184Z,101228
2017-05-28T22:00:02.506Z,101223
2017-05-28T22:02:31.808Z,101231
2017-05-28T22:05:01.000Z,101231
2017-05-28T22:07:30.197Z,101233
2017-05-28T22:09:59.420Z,101241
2017-05-28T22:12:28.665Z,101228
2017-05-28T22:14:57.890Z,101236
2017-05-28T22:17:28.629Z,101218
2017-05-28T22:19:57.847Z,101217
2017-05-28T22:22:27.157Z,101221
2017-05-28T22:24:56.349Z,101214
2017-05-28T22:27:25.694Z,101212
2017-05-28T22:29:54.970Z,101220
2017-05-28T22:32:24.425Z,101209
2017-05-28T22:34:53.654Z,101216
2017-05-28T22:37:22.884Z,101211
2017-05-28T22:39:52.512Z,101207
2017-05-28T22:42:21.849Z,101197
2017-05-28T22:44:51.069Z,101214
2017-05-28T22:47:20.273Z,101203
2017-05-28T22:49:49.544Z,101200
2017-05-28T22:52:19.133Z,101202
2017-05-28T22:54:48.349Z,101190
2017-05-28T22:57:18.204Z,101186
2017-05-28T22:59:47.584Z,101186
2017-05-28T23:02:16.773Z,101186
2017-05-28T23:04:46.020Z,101195
2017-05-28T23:07:15.410Z,101188
2017-05-28T23:09:44.626Z,101176
2017-05-28T23:12:13.851Z,101183
2017-05-28T23:14:43.057Z,101179
2017-05-28T23:17:12.273Z,101185
2017-05-28T23:19:41.980Z,101189
2017-05-28T23:22:11.208Z,101178
2017-05-28T23:24:40.556Z,101174
2017-05-28T23:27:09.784Z,101180
2017-05-28T23:29:39.042Z,101175
2017-05-28T23:32:08.297Z,101167
2017-05-28T23:34:37.552Z,101173
2017-05-28T23:37:06.948Z,101175
2017-05-28T23:39:36.456Z,101177
2017-05-28T23:42:05.710Z,101169
2017-05-28T23:44:35.478Z,101158
2017-05-28T23:47:04.686Z,101159
2017-05-28T23:49:33.884Z,101161
2017-05-28T23:52:03.086Z,101160
2017-05-28T23:54:32.457Z,101162
2017-05-28T23:57:01.752Z,101149
2017-05-28T23:59:31.195Z,101143
